Time;durP1;ratioP1;P1;durP2;ratioP2;P2;SDS_P1;SDS_P2;PMS_P1;PMS_P2;Temp;Humidity;BMP_temperature;BMP_pressure;BME280_temperature;BME280_humidity;BME280_pressure;Samples;Min_cycle;Max_cycle;Signal;HPM_P1;HPM_P2
2022/07/04 00:01:10;;;;;;;1.02;0.85;;;;;;;33.47;25.66;98282.94;5077287;28;20025;-78
2022/07/04 00:03:36;;;;;;;0.80;0.80;;;;;;;33.32;25.84;98282.94;5083913;28;20066;-78
2022/07/04 00:06:02;;;;;;;1.10;0.90;;;;;;;33.48;25.60;98281.63;5073668;28;20016;-78
2022/07/04 00:08:28;;;;;;;0.80;0.80;;;;;;;33.55;25.57;98279.19;5073467;28;20036;-78
2022/07/04 00:10:54;;;;;;;1.17;1.08;;;;;;;33.58;25.34;98272.53;5073376;28;20036;-78
2022/07/04 00:13:21;;;;;;;1.00;0.90;;;;;;;33.63;25.43;98271.03;5073232;28;20140;-78
2022/07/04 00:15:47;;;;;;;1.00;0.90;;;;;;;33.43;25.66;98271.72;5055315;28;20040;-78
2022/07/04 00:18:13;;;;;;;2.42;1.23;;;;;;;33.27;25.40;98275.88;5074257;28;20034;-78
2022/07/04 00:20:39;;;;;;;2.20;0.90;;;;;;;33.25;25.77;98266.28;5092668;28;20035;-78
2022/07/04 00:23:05;;;;;;;1.10;1.00;;;;;;;33.47;25.20;98263.00;5093254;28;20063;-78
2022/07/04 00:25:31;;;;;;;2.38;0.93;;;;;;;33.66;25.31;98259.44;5075240;28;20082;-78
2022/07/04 00:27:57;;;;;;;1.02;0.93;;;;;;;33.44;25.39;98261.94;5092936;28;20108;-78
2022/07/04 00:30:23;;;;;;;0.80;0.80;;;;;;;33.38;25.33;98258.97;5093442;28;20035;-78
2022/07/04 00:32:49;;;;;;;1.20;0.95;;;;;;;33.58;25.11;98260.34;5080639;28;20036;-78
2022/07/04 00:35:15;;;;;;;1.42;1.33;;;;;;;33.75;24.97;98258.53;5074380;28;20108;-78
2022/07/04 00:37:42;;;;;;;2.53;0.95;;;;;;;33.89;25.16;98257.66;5093413;28;20038;-78
2022/07/04 00:40:08;;;;;;;0.93;0.80;;;;;;;33.66;25.44;98255.78;5093409;28;20059;-78
2022/07/04 00:42:34;;;;;;;2.15;1.15;;;;;;;33.59;24.79;98251.28;5093055;28;20093;-78
2022/07/04 00:45:00;;;;;;;0.80;0.80;;;;;;;33.71;24.79;98253.03;5093120;28;20032;-78
2022/07/04 00:47:27;;;;;;;0.90;0.90;;;;;;;33.66;24.65;98247.25;5093057;28;20032;-78
2022/07/04 00:49:53;;;;;;;1.17;1.00;;;;;;;33.67;24.83;98245.97;5092961;28;20059;-78
2022/07/04 00:52:20;;;;;;;1.10;1.00;;;;;;;33.67;25.04;98249.63;5092219;28;20043;-78
2022/07/04 00:54:47;;;;;;;0.90;0.90;;;;;;;33.65;25.05;98251.38;5087162;28;20035;-78
2022/07/04 00:57:13;;;;;;;1.17;1.08;;;;;;;33.45;24.84;98257.78;5090878;28;20040;-78
2022/07/04 00:59:39;;;;;;;1.25;1.10;;;;;;;33.46;25.32;98264.25;5087144;28;20036;-78
2022/07/04 01:02:05;;;;;;;1.70;0.90;;;;;;;33.47;24.96;98265.84;5072611;28;20040;-78
2022/07/04 01:04:31;;;;;;;1.77;0.98;;;;;;;33.58;24.97;98266.03;5072788;28;20052;-78
2022/07/04 01:06:57;;;;;;;1.10;1.00;;;;;;;33.71;24.60;98260.78;5073011;28;20395;-78
2022/07/04 01:09:23;;;;;;;1.27;1.17;;;;;;;33.30;25.00;98272.03;5057571;28;20484;-78
2022/07/04 01:11:51;;;;;;;0.88;0.88;;;;;;;32.85;25.56;98261.16;5092753;28;20096;-78
2022/07/04 01:14:17;;;;;;;0.85;0.85;;;;;;;32.47;25.72;98250.59;5092896;28;20028;-78
2022/07/04 01:16:43;;;;;;;1.20;1.10;;;;;;;32.19;25.71;98248.47;5092866;28;20108;-78
2022/07/04 01:19:09;;;;;;;1.00;0.90;;;;;;;32.37;25.71;98248.34;5093040;28;20537;-79
2022/07/04 01:21:35;;;;;;;1.30;1.20;;;;;;;32.19;26.17;98248.47;5092885;28;20028;-78
2022/07/04 01:24:02;;;;;;;1.10;1.00;;;;;;;31.89;26.99;98247.56;5092782;28;20035;-78
2022/07/04 01:26:30;;;;;;;1.00;0.95;;;;;;;32.16;26.77;98240.94;5088485;28;20515;-78
2022/07/04 01:28:56;;;;;;;1.98;1.35;;;;;;;32.65;25.63;98244.75;5072830;28;20032;-78
2022/07/04 01:31:22;;;;;;;1.23;1.05;;;;;;;32.98;25.59;98243.81;5072393;28;20480;-78
2022/07/04 01:33:48;;;;;;;1.23;1.00;;;;;;;33.14;25.58;98244.09;5093360;28;20032;-78
2022/07/04 01:36:14;;;;;;;0.98;0.95;;;;;;;33.14;25.49;98241.25;5085590;28;20040;-77
2022/07/04 01:38:40;;;;;;;1.00;0.90;;;;;;;33.30;25.31;98243.56;5096266;28;20102;-78
2022/07/04 01:41:07;;;;;;;0.88;0.88;;;;;;;33.08;25.49;98243.22;5096091;28;20040;-78
2022/07/04 01:43:35;;;;;;;0.82;0.80;;;;;;;33.04;25.07;98247.53;5091692;28;20028;-78
2022/07/04 01:46:01;;;;;;;3.15;0.73;;;;;;;33.06;25.36;98251.47;5076199;28;20039;-78
2022/07/04 01:48:27;;;;;;;1.10;1.00;;;;;;;33.04;25.17;98239.00;5075707;28;20404;-78
2022/07/04 01:50:53;;;;;;;1.20;1.10;;;;;;;33.02;25.40;98248.06;5075685;28;20064;-78
2022/07/04 01:53:19;;;;;;;1.10;1.00;;;;;;;32.94;25.71;98246.84;5075773;28;20037;-78
2022/07/04 01:55:45;;;;;;;0.95;0.85;;;;;;;33.04;25.66;98250.41;5075208;28;20055;-78
2022/07/04 01:58:12;;;;;;;1.38;1.27;;;;;;;33.00;25.39;98244.84;5075326;28;20052;-78
2022/07/04 02:03:22;;;;;;;1.10;1.10;;;;;;;32.78;25.86;98250.16;5075683;28;20097;-78
2022/07/04 02:05:48;;;;;;;1.70;1.25;;;;;;;32.74;25.92;98249.59;5075588;28;20066;-78
2022/07/04 02:08:14;;;;;;;1.10;1.00;;;;;;;32.85;25.80;98251.84;5075481;28;20016;-78
2022/07/04 02:10:40;;;;;;;1.05;0.88;;;;;;;33.12;25.27;98257.25;5075183;28;20040;-78
2022/07/04 02:13:07;;;;;;;1.17;1.08;;;;;;;33.08;24.96;98257.44;5075525;28;20036;-78
2022/07/04 02:15:43;;;;;;;0.88;0.88;;;;;;;32.82;25.01;98261.34;5075435;28;20107;-78
2022/07/04 02:18:11;;;;;;;0.90;0.90;;;;;;;32.96;24.61;98258.50;5084332;28;20036;-78
2022/07/04 02:20:37;;;;;;;1.10;1.00;;;;;;;33.10;24.46;98260.59;5095314;28;20400;-78
2022/07/04 02:23:04;;;;;;;1.95;1.20;;;;;;;33.29;24.26;98259.09;5095858;28;20465;-78
2022/07/04 02:25:31;;;;;;;1.50;0.98;;;;;;;33.37;24.04;98265.94;5095232;28;20107;-78
2022/07/04 02:27:57;;;;;;;0.93;0.93;;;;;;;33.20;24.30;98273.44;5095371;28;20122;-78
2022/07/04 02:30:24;;;;;;;1.05;1.05;;;;;;;32.88;24.76;98263.03;5095263;28;20024;-78
2022/07/04 02:32:50;;;;;;;1.85;1.20;;;;;;;32.61;25.30;98274.66;5094935;28;20035;-78
2022/07/04 02:35:17;;;;;;;0.85;0.80;;;;;;;32.33;25.32;98274.09;5094399;28;20067;-78
2022/07/04 02:37:43;;;;;;;0.90;0.90;;;;;;;32.46;25.08;98271.78;5095168;28;20028;-78
2022/07/04 02:40:10;;;;;;;1.35;1.10;;;;;;;32.70;25.04;98274.56;5094856;28;20388;-78
2022/07/04 02:42:36;;;;;;;1.23;1.15;;;;;;;32.95;24.21;98282.56;5095229;28;20536;-78
2022/07/04 02:45:04;;;;;;;1.25;1.13;;;;;;;33.09;24.55;98283.84;5094443;28;20032;-78
2022/07/04 02:47:30;;;;;;;1.17;1.08;;;;;;;33.00;25.38;98281.09;5078215;28;20408;-78
2022/07/04 02:49:57;;;;;;;1.30;1.20;;;;;;;33.04;25.17;98278.84;5074677;28;20598;-78
2022/07/04 02:52:23;;;;;;;1.58;1.42;;;;;;;32.85;24.78;98275.38;5085293;28;20055;-78
2022/07/04 02:54:49;;;;;;;1.33;1.00;;;;;;;32.69;24.87;98276.66;5085474;28;20021;-78
2022/07/04 02:57:15;;;;;;;1.48;1.38;;;;;;;32.60;25.01;98276.72;5074427;28;20041;-78
2022/07/04 02:59:42;;;;;;;0.98;0.95;;;;;;;32.82;24.85;98272.72;5075339;28;20049;-78
2022/07/04 03:02:08;;;;;;;0.90;0.90;;;;;;;32.96;24.36;98269.88;5085595;28;20103;-78
2022/07/04 03:04:34;;;;;;;0.93;0.93;;;;;;;33.07;24.16;98270.09;5056459;28;20106;-78
2022/07/04 03:07:01;;;;;;;0.82;0.82;;;;;;;33.07;24.56;98283.56;5074119;28;20395;-78
2022/07/04 03:09:27;;;;;;;1.20;1.00;;;;;;;33.29;24.17;98276.19;5085524;28;20032;-78
2022/07/04 03:11:53;;;;;;;1.15;1.05;;;;;;;33.43;24.13;98278.22;5094492;28;20426;-78
2022/07/04 03:14:20;;;;;;;1.20;1.10;;;;;;;33.28;24.44;98285.22;5094491;28;20464;-78
2022/07/04 03:16:46;;;;;;;2.28;1.30;;;;;;;33.24;24.54;98276.06;5094531;28;20111;-78
2022/07/04 03:19:12;;;;;;;1.25;0.90;;;;;;;33.12;25.02;98272.25;5094363;28;20020;-78
2022/07/04 03:21:39;;;;;;;1.70;1.30;;;;;;;33.09;24.89;98284.66;5094274;28;20025;-78
2022/07/04 03:24:05;;;;;;;1.13;1.05;;;;;;;33.03;24.78;98272.38;5094280;28;20063;-78
2022/07/04 03:26:33;;;;;;;1.00;1.00;;;;;;;33.09;24.70;98278.16;5093588;28;20036;-78
2022/07/04 03:29:00;;;;;;;1.30;1.20;;;;;;;33.38;24.26;98281.75;5094183;28;20055;-78
2022/07/04 03:31:28;;;;;;;1.05;0.90;;;;;;;33.15;24.89;98274.13;5093209;28;20071;-78
2022/07/04 03:33:54;;;;;;;1.40;1.30;;;;;;;33.04;24.65;98273.94;5073750;28;20029;-78
2022/07/04 03:36:21;;;;;;;1.80;1.00;;;;;;;33.31;24.22;98278.53;5073519;28;20029;-78
2022/07/04 03:38:47;;;;;;;1.17;1.08;;;;;;;33.70;24.11;98271.38;5073688;28;20038;-78
2022/07/04 03:41:13;;;;;;;1.75;1.65;;;;;;;33.73;25.05;98270.41;5074061;28;20049;-78
2022/07/04 03:43:39;;;;;;;1.08;1.08;;;;;;;33.71;25.25;98272.19;5086830;28;20031;-78
2022/07/04 03:46:06;;;;;;;1.42;1.33;;;;;;;34.10;24.22;98272.75;5077653;28;20054;-78
2022/07/04 03:48:32;;;;;;;1.38;1.27;;;;;;;34.43;24.89;98273.94;5073604;28;20027;-78
2022/07/04 03:50:58;;;;;;;1.35;1.25;;;;;;;34.53;24.12;98266.06;5073332;28;20040;-78
2022/07/04 03:53:24;;;;;;;1.30;1.20;;;;;;;34.58;24.86;98271.81;5073537;28;20032;-78
2022/07/04 03:55:50;;;;;;;1.40;1.30;;;;;;;34.66;25.01;98270.09;5072193;28;20098;-78
2022/07/04 03:58:17;;;;;;;1.48;1.00;;;;;;;34.75;24.45;98272.00;5073261;28;20123;-78
2022/07/04 04:00:43;;;;;;;2.08;1.63;;;;;;;34.78;24.42;98273.03;5086820;28;20051;-77
2022/07/04 04:05:26;;;;;;;1.40;1.30;;;;;;;34.82;24.79;98277.25;5093597;28;20028;-78
2022/07/04 04:05:56;;;;;;;1.52;1.42;;;;;;;34.91;25.04;98271.38;5093285;28;20510;-78
2022/07/04 04:08:23;;;;;;;1.70;1.38;;;;;;;35.00;24.57;98278.97;5093454;28;20110;-78
2022/07/04 04:10:51;;;;;;;1.98;1.73;;;;;;;34.95;24.60;98280.50;5093448;28;20036;-78
2022/07/04 04:13:17;;;;;;;1.50;1.40;;;;;;;35.40;25.14;98285.31;5093697;28;20377;-78
2022/07/04 04:15:43;;;;;;;1.80;1.40;;;;;;;35.97;24.19;98301.59;5093446;28;20028;-78
2022/07/04 04:18:09;;;;;;;1.65;1.50;;;;;;;36.17;24.60;98284.31;5092721;28;20028;-78
2022/07/04 04:20:35;;;;;;;1.80;1.70;;;;;;;36.31;23.49;98299.72;5093163;28;20028;-78
2022/07/04 04:23:01;;;;;;;1.60;1.50;;;;;;;35.96;23.85;98289.41;5093522;28;20032;-78
2022/07/04 04:25:28;;;;;;;1.30;1.20;;;;;;;35.52;24.13;98280.53;5093316;28;20024;-78
2022/07/04 04:27:54;;;;;;;3.35;1.30;;;;;;;35.27;24.96;98293.53;5093765;28;20032;-78
2022/07/04 04:30:20;;;;;;;1.60;1.50;;;;;;;35.14;25.19;98284.59;5093205;28;20086;-76
2022/07/04 04:32:46;;;;;;;1.40;1.30;;;;;;;35.06;25.54;98294.91;5081058;28;20036;-76
2022/07/04 04:35:12;;;;;;;1.60;1.50;;;;;;;34.95;25.76;98289.06;5085039;28;20039;-76
2022/07/04 04:37:38;;;;;;;1.70;1.60;;;;;;;35.03;25.97;98289.44;5072912;28;20516;-76
2022/07/04 04:40:05;;;;;;;1.90;1.80;;;;;;;35.21;26.00;98287.00;5072951;28;20499;-76
2022/07/04 04:42:31;;;;;;;1.95;1.77;;;;;;;35.41;25.17;98286.09;5073213;28;20020;-76
2022/07/04 04:44:57;;;;;;;1.75;1.65;;;;;;;35.74;25.38;98282.75;5089592;28;20059;-76
2022/07/04 04:47:24;;;;;;;1.77;1.67;;;;;;;35.68;25.06;98291.28;5093090;28;20030;-75
2022/07/04 04:49:50;;;;;;;1.65;1.55;;;;;;;35.98;25.44;98297.47;5093091;28;20032;-76
2022/07/04 04:52:16;;;;;;;2.33;1.77;;;;;;;36.25;25.37;98298.91;5092005;28;20111;-76
2022/07/04 04:54:42;;;;;;;2.30;1.60;;;;;;;36.53;25.05;98288.38;5084850;28;20111;-76
2022/07/04 04:57:08;;;;;;;3.83;1.75;;;;;;;36.78;24.22;98287.44;5072919;28;20040;-76
2022/07/04 04:59:34;;;;;;;2.00;1.80;;;;;;;36.54;24.70;98278.50;5072670;28;20036;-76
2022/07/04 05:02:01;;;;;;;1.50;1.40;;;;;;;36.78;25.23;98280.94;5072763;28;20472;-76
2022/07/04 05:04:27;;;;;;;1.83;1.60;;;;;;;36.80;24.76;98276.25;5072506;28;20036;-76
2022/07/04 05:06:53;;;;;;;1.67;1.58;;;;;;;36.65;24.83;98281.41;5073120;28;20039;-76
2022/07/04 05:09:19;;;;;;;1.77;1.67;;;;;;;36.82;24.40;98279.38;5094905;28;20032;-76
2022/07/04 05:11:46;;;;;;;2.08;1.63;;;;;;;37.03;24.48;98274.22;5097083;28;20028;-76
2022/07/04 05:14:12;;;;;;;1.30;1.20;;;;;;;37.46;23.81;98269.81;5096932;28;20126;-76
2022/07/04 05:16:38;;;;;;;1.58;1.48;;;;;;;38.00;23.60;98268.19;5096965;28;20357;-76
2022/07/04 05:19:05;;;;;;;1.52;1.20;;;;;;;38.65;23.08;98277.06;5096386;28;20033;-76
2022/07/04 05:21:31;;;;;;;1.40;1.30;;;;;;;39.03;21.81;98272.41;5097021;28;20028;-76
2022/07/04 05:23:57;;;;;;;1.05;0.95;;;;;;;39.37;22.05;98270.84;5096742;28;20036;-76
2022/07/04 05:26:23;;;;;;;1.73;1.00;;;;;;;39.49;21.95;98283.03;5095706;28;20047;-76
2022/07/04 05:28:50;;;;;;;1.48;1.38;;;;;;;39.63;21.16;98286.88;5096495;28;20407;-76
2022/07/04 05:31:16;;;;;;;1.30;1.20;;;;;;;39.74;21.43;98284.66;5096332;28;20036;-76
2022/07/04 05:33:42;;;;;;;1.05;1.05;;;;;;;39.93;21.79;98291.25;5076314;28;20035;-76
2022/07/04 05:36:08;;;;;;;0.98;0.93;;;;;;;40.17;21.54;98298.38;5076036;28;20051;-76
2022/07/04 05:38:34;;;;;;;1.23;1.15;;;;;;;40.09;21.71;98291.63;5076085;28;20028;-76
2022/07/04 05:41:01;;;;;;;1.00;1.00;;;;;;;40.28;22.00;98286.72;5075987;28;20036;-76
2022/07/04 05:43:27;;;;;;;1.05;1.02;;;;;;;40.50;22.01;98290.09;5091977;28;20104;-76
2022/07/04 05:45:53;;;;;;;1.10;1.00;;;;;;;40.66;21.27;98296.97;5096057;28;20032;-76
2022/07/04 05:48:20;;;;;;;1.80;1.10;;;;;;;40.69;20.74;98295.88;5095714;28;20111;-76
2022/07/04 05:50:46;;;;;;;1.25;1.10;;;;;;;40.35;21.40;98297.63;5096041;28;20050;-77
2022/07/04 05:53:12;;;;;;;1.50;1.40;;;;;;;40.28;21.56;98290.38;5096250;28;20391;-77
2022/07/04 05:55:38;;;;;;;1.95;1.30;;;;;;;40.33;21.01;98295.25;5080160;28;20021;-77
2022/07/04 05:58:04;;;;;;;1.30;1.20;;;;;;;40.17;22.01;98299.13;5091723;28;20143;-76
2022/07/04 06:00:30;;;;;;;0.93;0.93;;;;;;;39.80;21.80;98299.75;5095655;28;20078;-76
2022/07/04 06:02:56;;;;;;;0.80;0.80;;;;;;;40.03;22.15;98305.31;5084245;28;20039;-76
2022/07/04 06:05:23;;;;;;;1.00;1.00;;;;;;;40.43;22.09;98299.38;5094051;28;20036;-76
2022/07/04 06:07:49;;;;;;;4.13;1.40;;;;;;;40.46;21.13;98304.03;5095750;28;20023;-76
2022/07/04 06:10:15;;;;;;;0.90;0.90;;;;;;;40.64;21.76;98311.91;5095675;28;20028;-76
2022/07/04 06:12:41;;;;;;;1.15;1.13;;;;;;;40.81;21.58;98305.94;5095687;28;20041;-76
2022/07/04 06:15:09;;;;;;;0.88;0.88;;;;;;;41.00;21.53;98311.72;5095043;28;20032;-76
2022/07/04 06:17:36;;;;;;;1.77;1.20;;;;;;;40.73;21.87;98304.97;5075133;28;20074;-76
2022/07/04 06:20:03;;;;;;;1.42;1.33;;;;;;;40.72;20.54;98314.97;5074172;28;20024;-76
2022/07/04 06:22:45;;;;;;;3.03;1.65;;;;;;;40.62;21.60;98308.81;5075274;28;20037;-77
2022/07/04 06:25:19;;;;;;;1.70;1.60;;;;;;;40.88;21.40;98296.69;5090941;28;20090;-77
2022/07/04 06:27:47;;;;;;;3.53;1.70;;;;;;;41.16;21.13;98299.94;5075784;28;20495;-77
2022/07/04 06:30:15;;;;;;;3.47;1.95;;;;;;;41.35;20.33;98297.03;5090349;28;20035;-77
2022/07/04 06:32:48;;;;;;;2.38;2.28;;;;;;;41.53;20.45;98286.75;5080582;28;20029;-77
2022/07/04 06:38:03;;;;;;;2.20;2.10;;;;;;;40.84;20.35;98292.53;5075258;28;20040;-77
2022/07/04 06:40:29;;;;;;;2.72;2.53;;;;;;;40.90;21.04;98288.28;5076503;28;20510;-77
2022/07/04 06:42:55;;;;;;;2.72;2.47;;;;;;;40.84;20.51;98284.69;5095140;28;20034;-77
2022/07/04 06:45:21;;;;;;;2.38;2.17;;;;;;;40.59;20.92;98278.22;5094788;28;20050;-76
2022/07/04 06:47:48;;;;;;;2.80;2.60;;;;;;;40.85;21.79;98286.25;5095221;28;20048;-77
2022/07/04 06:50:14;;;;;;;2.30;2.10;;;;;;;40.98;20.82;98282.66;5084882;28;20571;-77
2022/07/04 06:52:40;;;;;;;3.13;2.78;;;;;;;40.97;20.13;98276.13;5074663;28;20052;-77
2022/07/04 06:55:07;;;;;;;2.85;2.60;;;;;;;40.88;19.77;98282.28;5074827;28;20032;-77
2022/07/04 06:57:33;;;;;;;2.95;2.75;;;;;;;40.89;20.44;98283.06;5074707;28;20033;-77
2022/07/04 06:59:59;;;;;;;3.10;2.90;;;;;;;40.68;20.43;98285.69;5074503;28;20044;-77
2022/07/04 07:02:25;;;;;;;3.15;2.85;;;;;;;40.65;21.00;98287.56;5074497;28;20032;-77
2022/07/04 07:04:54;;;;;;;2.83;2.63;;;;;;;40.78;21.21;98291.81;5086163;28;20024;-77
2022/07/04 07:07:20;;;;;;;2.90;2.70;;;;;;;40.53;21.14;98285.38;5093152;28;20496;-77
2022/07/04 07:09:46;;;;;;;2.80;2.60;;;;;;;40.16;20.98;98277.44;5094360;28;20024;-78
2022/07/04 07:12:12;;;;;;;3.72;3.42;;;;;;;40.14;20.82;98288.72;5094705;28;20084;-77
2022/07/04 07:14:38;;;;;;;4.10;3.80;;;;;;;39.38;21.33;98288.88;5094519;28;20035;-77
2022/07/04 07:17:04;;;;;;;3.75;3.45;;;;;;;39.34;21.61;98282.66;5094685;28;20047;-77
2022/07/04 07:19:31;;;;;;;4.55;4.15;;;;;;;39.31;21.79;98272.22;5094298;28;20071;-77
2022/07/04 07:21:57;;;;;;;4.15;3.85;;;;;;;39.50;21.96;98275.97;5076154;28;20033;-77
2022/07/04 07:24:25;;;;;;;4.30;3.90;;;;;;;39.85;21.74;98278.78;5092994;28;20053;-77
2022/07/04 07:26:52;;;;;;;4.40;4.00;;;;;;;39.72;21.04;98270.06;5094617;28;20036;-77
2022/07/04 07:29:18;;;;;;;3.65;3.35;;;;;;;40.21;20.22;98270.84;5076034;28;20067;-77
2022/07/04 07:31:44;;;;;;;3.92;3.45;;;;;;;40.19;20.49;98267.69;5094047;28;20024;-77
2022/07/04 07:34:10;;;;;;;3.47;3.28;;;;;;;40.42;19.51;98271.09;5088686;28;20182;-77
2022/07/04 07:36:37;;;;;;;3.75;3.05;;;;;;;40.84;19.79;98272.38;5086535;28;20047;-77
2022/07/04 07:39:03;;;;;;;3.15;2.95;;;;;;;40.74;20.23;98265.44;5074997;28;20594;-77
2022/07/04 07:41:29;;;;;;;3.08;2.88;;;;;;;41.13;20.75;98280.06;5085479;28;20056;-78
2022/07/04 07:43:55;;;;;;;3.00;2.80;;;;;;;40.76;20.48;98271.44;5093708;28;20024;-77
2022/07/04 07:46:21;;;;;;;3.05;2.85;;;;;;;40.78;20.83;98268.78;5094098;28;20025;-78
2022/07/04 07:48:47;;;;;;;6.57;2.95;;;;;;;40.41;20.38;98266.66;5093820;28;20040;-78
2022/07/04 07:51:15;;;;;;;3.97;3.25;;;;;;;40.75;20.66;98267.78;5075681;28;20391;-77
2022/07/04 07:53:41;;;;;;;2.70;2.50;;;;;;;40.94;19.73;98262.81;5093687;28;20032;-77
2022/07/04 07:56:07;;;;;;;3.15;2.63;;;;;;;40.94;20.94;98265.69;5073568;28;20488;-78
2022/07/04 07:58:34;;;;;;;3.03;2.65;;;;;;;41.23;19.79;98258.94;5085415;28;20051;-77
2022/07/04 08:01:03;;;;;;;2.50;2.30;;;;;;;41.50;19.97;98259.81;5093789;28;20506;-78
2022/07/04 08:06:15;;;;;;;3.95;2.47;;;;;;;41.26;19.58;98251.31;5093662;28;20067;-78
2022/07/04 08:08:45;;;;;;;2.60;2.45;;;;;;;41.41;18.78;98254.47;5075590;28;20033;-78
2022/07/04 08:11:12;;;;;;;2.47;2.28;;;;;;;40.37;20.07;98257.56;5093433;28;20036;-78
2022/07/04 08:13:39;;;;;;;2.90;2.70;;;;;;;40.36;19.85;98268.28;5093228;28;20031;-78
2022/07/04 08:16:06;;;;;;;2.50;2.30;;;;;;;40.63;20.89;98264.28;5091291;28;20024;-78
2022/07/04 08:18:33;;;;;;;2.60;2.40;;;;;;;41.13;19.94;98269.31;5093585;28;20032;-78
2022/07/04 08:21:00;;;;;;;2.70;2.50;;;;;;;41.07;19.33;98267.84;5093039;28;20024;-78
2022/07/04 08:23:27;;;;;;;2.70;2.50;;;;;;;39.85;20.28;98272.25;5093351;28;20032;-78
2022/07/04 08:25:53;;;;;;;2.47;2.28;;;;;;;40.69;19.59;98272.84;5093348;28;20361;-79
2022/07/04 08:28:20;;;;;;;2.03;1.92;;;;;;;40.65;20.43;98281.81;5093428;28;20020;-78
2022/07/04 08:30:46;;;;;;;2.70;2.38;;;;;;;40.63;18.72;98277.91;5093205;28;20040;-78
2022/07/04 08:33:12;;;;;;;2.40;2.30;;;;;;;41.00;19.85;98277.91;5092645;28;20028;-78
2022/07/04 08:35:38;;;;;;;2.45;2.25;;;;;;;41.30;18.68;98261.22;5093124;28;20063;-78
2022/07/04 08:38:04;;;;;;;2.85;2.65;;;;;;;40.01;20.82;98277.88;5071835;28;20105;-78
2022/07/04 08:40:31;;;;;;;3.42;3.10;;;;;;;39.51;21.21;98277.53;5072990;28;20033;-78
2022/07/04 08:42:57;;;;;;;3.10;2.90;;;;;;;39.88;20.67;98283.47;5075040;28;20039;-78
2022/07/04 08:45:29;;;;;;;3.88;3.58;;;;;;;39.61;20.19;98278.00;5077152;28;20070;-78
2022/07/04 08:48:04;;;;;;;5.90;3.50;;;;;;;40.15;20.15;98270.13;5075724;28;20161;-78
2022/07/04 08:50:47;;;;;;;3.55;3.25;;;;;;;39.71;19.69;98279.97;5095047;28;20024;-78
2022/07/04 08:53:19;;;;;;;3.15;2.95;;;;;;;39.92;19.81;98283.16;5097281;28;20055;-78
2022/07/04 08:58:33;;;;;;;3.25;2.95;;;;;;;39.93;19.03;98284.72;5096978;28;20063;-78
2022/07/04 09:01:05;;;;;;;3.00;2.70;;;;;;;39.66;21.06;98283.69;5097330;28;20035;-78
2022/07/04 09:03:32;;;;;;;3.20;3.00;;;;;;;39.17;20.78;98274.16;5089614;28;20074;-78
2022/07/04 09:05:59;;;;;;;3.58;3.35;;;;;;;38.60;21.82;98280.72;5077600;28;20039;-78
2022/07/04 09:08:25;;;;;;;3.55;3.35;;;;;;;39.59;20.62;98278.53;5096942;28;20081;-78
2022/07/04 09:10:53;;;;;;;3.72;3.42;;;;;;;40.10;20.56;98288.22;5096706;28;20040;-78
2022/07/04 09:13:20;;;;;;;3.30;3.10;;;;;;;39.95;21.50;98290.72;5112394;28;20357;-78
2022/07/04 09:15:48;;;;;;;3.78;3.47;;;;;;;39.44;20.40;98281.00;5096708;28;20045;-78
2022/07/04 09:18:31;;;;;;;4.10;3.80;;;;;;;39.82;20.28;98284.81;5096896;28;20044;-78
2022/07/04 09:21:00;;;;;;;3.58;3.38;;;;;;;39.06;20.68;98284.94;5096939;28;20040;-78
2022/07/04 09:23:29;;;;;;;4.10;3.80;;;;;;;39.51;20.85;98286.16;5095559;28;20103;-78
2022/07/04 09:26:07;;;;;;;4.30;4.00;;;;;;;39.36;20.11;98280.00;5096648;28;20034;-79
2022/07/04 09:28:34;;;;;;;4.70;3.67;;;;;;;39.79;19.99;98274.44;5096451;28;20043;-78
2022/07/04 09:31:00;;;;;;;3.78;3.50;;;;;;;40.17;19.38;98270.34;5078874;28;20040;-78
2022/07/04 09:33:45;;;;;;;3.58;3.28;;;;;;;39.81;20.26;98275.44;5076130;28;20388;-78
2022/07/04 09:36:16;;;;;;;3.47;3.17;;;;;;;40.74;18.98;98269.09;5076485;28;20108;-78
2022/07/04 09:38:43;;;;;;;2.75;2.55;;;;;;;41.49;17.67;98269.03;5076299;28;20033;-78
2022/07/04 09:41:34;;;;;;;3.05;2.85;;;;;;;42.11;17.40;98273.13;5076296;28;20516;-78
2022/07/04 09:44:04;;;;;;;3.25;3.05;;;;;;;41.26;18.27;98271.47;5076263;28;20024;-78
2022/07/04 09:46:30;;;;;;;3.55;2.47;;;;;;;40.47;19.21;98276.78;5076133;28;20119;-78
2022/07/04 09:48:57;;;;;;;3.75;3.45;;;;;;;41.03;17.66;98271.03;5076031;28;20021;-78
2022/07/04 09:51:37;;;;;;;3.47;3.17;;;;;;;40.72;18.16;98270.97;5075672;28;20056;-78
2022/07/04 09:54:26;;;;;;;3.10;2.90;;;;;;;41.45;18.52;98259.94;5075807;28;20044;-78
2022/07/04 09:56:55;;;;;;;3.38;3.08;;;;;;;41.87;17.72;98261.81;5076660;28;20283;-78
2022/07/04 09:59:22;;;;;;;3.47;2.80;;;;;;;42.25;17.37;98256.59;5075619;28;20040;-78
2022/07/04 10:01:49;;;;;;;2.60;2.40;;;;;;;42.18;17.69;98255.16;5075869;28;20177;-78
2022/07/04 10:04:17;;;;;;;3.95;2.28;;;;;;;40.98;19.76;98260.41;5075863;28;20067;-78
2022/07/04 10:06:44;;;;;;;3.05;2.85;;;;;;;41.37;16.40;98247.47;5075771;28;20021;-78
2022/07/04 10:09:14;;;;;;;3.05;2.85;;;;;;;41.51;16.98;98246.97;5075533;28;20024;-78
2022/07/04 10:11:42;;;;;;;2.95;2.75;;;;;;;41.74;17.18;98245.25;5075075;28;20115;-78
2022/07/04 10:14:11;;;;;;;2.05;1.95;;;;;;;42.35;16.81;98246.94;5084114;28;20111;-78
2022/07/04 10:16:38;;;;;;;2.50;2.30;;;;;;;41.84;17.14;98239.81;5095652;28;20035;-78
2022/07/04 10:19:06;;;;;;;3.00;2.65;;;;;;;41.38;17.81;98249.03;5095593;28;20047;-78
2022/07/04 10:21:33;;;;;;;2.67;2.47;;;;;;;40.95;18.03;98252.84;5095562;28;20021;-78
2022/07/04 10:24:00;;;;;;;3.33;2.58;;;;;;;41.38;16.87;98238.28;5095469;28;20043;-78
2022/07/04 10:26:28;;;;;;;2.95;2.67;;;;;;;41.04;17.36;98231.50;5095454;28;20119;-79
2022/07/04 10:28:55;;;;;;;3.15;2.88;;;;;;;41.15;17.65;98239.94;5095693;28;20119;-78
2022/07/04 10:31:25;;;;;;;2.97;2.40;;;;;;;41.60;16.23;98239.97;5093440;28;20415;-78
2022/07/04 10:33:52;;;;;;;2.28;2.17;;;;;;;41.92;16.07;98235.72;5093221;28;20028;-79
2022/07/04 10:36:23;;;;;;;2.85;1.85;;;;;;;42.76;15.34;98236.88;5076646;28;20082;-79
2022/07/04 10:38:55;;;;;;;1.83;1.73;;;;;;;42.95;15.41;98232.47;5075005;28;20036;-78
2022/07/04 10:41:23;;;;;;;2.42;1.63;;;;;;;43.00;14.76;98231.56;5056809;28;20024;-79
2022/07/04 10:43:54;;;;;;;1.77;1.67;;;;;;;42.25;16.62;98227.72;5074915;28;20442;-79
2022/07/04 10:46:25;;;;;;;1.38;1.27;;;;;;;42.75;15.65;98229.53;5074720;28;20081;-78
2022/07/04 10:49:02;;;;;;;2.75;1.30;;;;;;;43.43;16.88;98230.28;5089320;28;20024;-78
2022/07/04 10:51:34;;;;;;;1.58;1.27;;;;;;;43.27;15.00;98230.09;5076711;28;20489;-79
2022/07/04 10:54:06;;;;;;;1.65;1.48;;;;;;;43.68;14.71;98229.34;5094852;28;20028;-79
2022/07/04 10:56:36;;;;;;;1.40;1.30;;;;;;;43.95;13.63;98229.91;5094770;28;20032;-78
2022/07/04 10:59:09;;;;;;;1.40;1.30;;;;;;;43.66;14.03;98226.22;5077096;28;20056;-78
2022/07/04 11:01:36;;;;;;;1.95;1.48;;;;;;;43.52;13.89;98229.75;5094827;28;20032;-79
2022/07/04 11:04:02;;;;;;;1.30;1.20;;;;;;;43.12;14.67;98237.84;5094129;28;20488;-79
2022/07/04 11:06:37;;;;;;;3.53;1.40;;;;;;;42.72;15.40;98234.31;5093483;28;20028;-79
2022/07/04 11:09:17;;;;;;;1.90;1.80;;;;;;;42.79;14.83;98230.72;5094406;28;20063;-79
2022/07/04 11:12:06;;;;;;;1.60;1.50;;;;;;;42.81;15.60;98228.06;5094542;28;20063;-79
2022/07/04 11:14:46;;;;;;;1.50;1.40;;;;;;;43.03;15.00;98221.78;5094549;28;20039;-79
2022/07/04 11:17:20;;;;;;;2.65;1.38;;;;;;;42.20;15.26;98217.09;5094750;28;20032;-79
2022/07/04 11:19:46;;;;;;;3.90;1.67;;;;;;;42.79;14.55;98224.97;5094453;28;20411;-79
2022/07/04 11:22:22;;;;;;;1.35;1.25;;;;;;;42.77;14.51;98221.84;5092897;28;20043;-79
2022/07/04 11:24:49;;;;;;;3.97;1.40;;;;;;;43.06;14.66;98219.88;5094102;28;20032;-79
2022/07/04 11:27:15;;;;;;;1.40;1.30;;;;;;;43.45;14.35;98216.78;5094640;28;20111;-79
2022/07/04 11:29:55;;;;;;;1.13;1.13;;;;;;;43.86;14.35;98215.94;5094249;28;20105;-79
2022/07/04 11:32:29;;;;;;;0.98;0.98;;;;;;;44.34;14.21;98218.00;5074323;28;20060;-78
2022/07/04 11:34:56;;;;;;;1.42;1.33;;;;;;;44.01;14.57;98218.16;5073817;28;20031;-79
2022/07/04 11:37:23;;;;;;;1.00;1.00;;;;;;;43.62;13.47;98220.00;5074217;28;20040;-79
2022/07/04 11:45:44;;;;;;;1.50;1.25;;;;;;;43.05;16.53;98209.66;5094232;28;20047;-79
2022/07/04 11:48:19;;;;;;;1.20;1.20;;;;;;;42.66;14.71;98204.78;5093915;28;20458;-79
2022/07/04 11:50:45;;;;;;;1.00;1.00;;;;;;;42.78;14.56;98202.41;5093800;28;20042;-79
2022/07/04 11:53:11;;;;;;;1.10;1.00;;;;;;;43.36;14.13;98202.84;5093561;28;20031;-79